sensor_id;sensor_type;location;lat;lon;timestamp;P1;durP1;ratioP1;P2;durP2;ratioP2
2416;SDS011;1219;48.736;9.330;2023-02-26T00:02:24;2.97;;;2.77;;
2416;SDS011;1219;48.736;9.330;2023-02-26T00:04:50;3.83;;;3.43;;
2416;SDS011;1219;48.736;9.330;2023-02-26T00:07:16;3.47;;;3.20;;
2416;SDS011;1219;48.736;9.330;2023-02-26T00:09:42;3.63;;;3.33;;
2416;SDS011;1219;48.736;9.330;2023-02-26T00:12:09;3.23;;;2.93;;
2416;SDS011;1219;48.736;9.330;2023-02-26T00:14:36;4.23;;;3.20;;
2416;SDS011;1219;48.736;9.330;2023-02-26T00:19:31;4.13;;;3.03;;
2416;SDS011;1219;48.736;9.330;2023-02-26T00:21:57;6.43;;;3.60;;
2416;SDS011;1219;48.736;9.330;2023-02-26T00:24:23;3.37;;;3.07;;
2416;SDS011;1219;48.736;9.330;2023-02-26T00:26:49;3.40;;;3.20;;
2416;SDS011;1219;48.736;9.330;2023-02-26T00:29:15;5.43;;;3.23;;
2416;SDS011;1219;48.736;9.330;2023-02-26T00:31:41;3.10;;;2.90;;
2416;SDS011;1219;48.736;9.330;2023-02-26T00:34:09;6.80;;;3.13;;
2416;SDS011;1219;48.736;9.330;2023-02-26T00:41:40;3.93;;;3.50;;
2416;SDS011;1219;48.736;9.330;2023-02-26T00:44:06;3.17;;;2.37;;
2416;SDS011;1219;48.736;9.330;2023-02-26T00:46:47;3.33;;;3.03;;
2416;SDS011;1219;48.736;9.330;2023-02-26T00:51:46;5.37;;;3.00;;
2416;SDS011;1219;48.736;9.330;2023-02-26T00:54:23;8.27;;;4.17;;
2416;SDS011;1219;48.736;9.330;2023-02-26T00:56:49;3.70;;;3.40;;
2416;SDS011;1219;48.736;9.330;2023-02-26T00:59:16;3.47;;;3.00;;
2416;SDS011;1219;48.736;9.330;2023-02-26T01:01:42;5.20;;;3.50;;
2416;SDS011;1219;48.736;9.330;2023-02-26T01:04:09;3.10;;;2.90;;
2416;SDS011;1219;48.736;9.330;2023-02-26T01:06:37;3.70;;;3.40;;
2416;SDS011;1219;48.736;9.330;2023-02-26T01:11:33;3.63;;;3.20;;
2416;SDS011;1219;48.736;9.330;2023-02-26T01:13:59;3.93;;;3.50;;
2416;SDS011;1219;48.736;9.330;2023-02-26T01:16:26;3.30;;;2.97;;
2416;SDS011;1219;48.736;9.330;2023-02-26T01:19:01;4.67;;;3.83;;
2416;SDS011;1219;48.736;9.330;2023-02-26T01:21:30;4.13;;;2.90;;
2416;SDS011;1219;48.736;9.330;2023-02-26T01:23:57;3.43;;;3.20;;
2416;SDS011;1219;48.736;9.330;2023-02-26T01:26:26;3.57;;;3.37;;
2416;SDS011;1219;48.736;9.330;2023-02-26T01:28:53;3.27;;;3.07;;
2416;SDS011;1219;48.736;9.330;2023-02-26T01:33:50;3.80;;;3.43;;
2416;SDS011;1219;48.736;9.330;2023-02-26T01:36:19;3.50;;;3.20;;
2416;SDS011;1219;48.736;9.330;2023-02-26T01:43:52;4.93;;;2.97;;
2416;SDS011;1219;48.736;9.330;2023-02-26T01:46:32;5.40;;;3.00;;
2416;SDS011;1219;48.736;9.330;2023-02-26T01:48:59;3.60;;;2.77;;
2416;SDS011;1219;48.736;9.330;2023-02-26T01:54:10;3.50;;;3.20;;
2416;SDS011;1219;48.736;9.330;2023-02-26T01:56:37;5.60;;;3.17;;
2416;SDS011;1219;48.736;9.330;2023-02-26T01:59:03;3.10;;;2.90;;
2416;SDS011;1219;48.736;9.330;2023-02-26T02:01:32;3.70;;;3.40;;
2416;SDS011;1219;48.736;9.330;2023-02-26T02:03:58;3.20;;;3.00;;
2416;SDS011;1219;48.736;9.330;2023-02-26T02:06:25;3.17;;;2.87;;
2416;SDS011;1219;48.736;9.330;2023-02-26T02:08:52;3.90;;;3.57;;
2416;SDS011;1219;48.736;9.330;2023-02-26T02:11:19;4.40;;;3.40;;
2416;SDS011;1219;48.736;9.330;2023-02-26T02:18:58;4.03;;;3.73;;
2416;SDS011;1219;48.736;9.330;2023-02-26T02:21:27;7.33;;;3.77;;
2416;SDS011;1219;48.736;9.330;2023-02-26T02:26:43;3.83;;;3.10;;
2416;SDS011;1219;48.736;9.330;2023-02-26T02:31:49;4.83;;;3.13;;
2416;SDS011;1219;48.736;9.330;2023-02-26T02:34:26;3.07;;;2.70;;
2416;SDS011;1219;48.736;9.330;2023-02-26T02:36:56;4.07;;;2.83;;
2416;SDS011;1219;48.736;9.330;2023-02-26T02:41:56;5.33;;;3.93;;
2416;SDS011;1219;48.736;9.330;2023-02-26T02:44:24;3.70;;;3.40;;
2416;SDS011;1219;48.736;9.330;2023-02-26T02:46:51;4.33;;;3.60;;
2416;SDS011;1219;48.736;9.330;2023-02-26T02:49:26;4.20;;;3.80;;
2416;SDS011;1219;48.736;9.330;2023-02-26T02:51:59;5.77;;;4.10;;
2416;SDS011;1219;48.736;9.330;2023-02-26T02:54:30;3.60;;;3.30;;
2416;SDS011;1219;48.736;9.330;2023-02-26T02:57:00;3.53;;;3.23;;
2416;SDS011;1219;48.736;9.330;2023-02-26T02:59:30;4.10;;;3.20;;
2416;SDS011;1219;48.736;9.330;2023-02-26T03:02:05;4.47;;;3.47;;
2416;SDS011;1219;48.736;9.330;2023-02-26T03:04:33;5.00;;;4.07;;
2416;SDS011;1219;48.736;9.330;2023-02-26T03:06:59;4.57;;;4.10;;
2416;SDS011;1219;48.736;9.330;2023-02-26T03:09:25;5.20;;;4.13;;
2416;SDS011;1219;48.736;9.330;2023-02-26T03:11:51;6.37;;;3.67;;
2416;SDS011;1219;48.736;9.330;2023-02-26T03:14:17;7.30;;;4.20;;
2416;SDS011;1219;48.736;9.330;2023-02-26T03:17:05;8.90;;;4.77;;
2416;SDS011;1219;48.736;9.330;2023-02-26T03:19:48;6.43;;;4.13;;
2416;SDS011;1219;48.736;9.330;2023-02-26T03:35:08;8.37;;;3.40;;
2416;SDS011;1219;48.736;9.330;2023-02-26T03:37:41;4.53;;;3.50;;
2416;SDS011;1219;48.736;9.330;2023-02-26T03:40:14;4.63;;;3.70;;
2416;SDS011;1219;48.736;9.330;2023-02-26T03:42:49;3.93;;;3.57;;
2416;SDS011;1219;48.736;9.330;2023-02-26T03:45:18;4.50;;;3.27;;
2416;SDS011;1219;48.736;9.330;2023-02-26T03:47:46;3.57;;;3.27;;
2416;SDS011;1219;48.736;9.330;2023-02-26T03:50:15;7.33;;;3.67;;
2416;SDS011;1219;48.736;9.330;2023-02-26T03:52:42;3.77;;;3.47;;
2416;SDS011;1219;48.736;9.330;2023-02-26T03:55:17;3.73;;;3.43;;
2416;SDS011;1219;48.736;9.330;2023-02-26T03:57:43;3.67;;;3.40;;
2416;SDS011;1219;48.736;9.330;2023-02-26T04:00:10;4.80;;;3.27;;
2416;SDS011;1219;48.736;9.330;2023-02-26T04:02:55;5.23;;;3.87;;
2416;SDS011;1219;48.736;9.330;2023-02-26T04:05:24;5.97;;;3.90;;
2416;SDS011;1219;48.736;9.330;2023-02-26T04:07:50;3.93;;;3.63;;
2416;SDS011;1219;48.736;9.330;2023-02-26T04:10:21;3.50;;;3.20;;
2416;SDS011;1219;48.736;9.330;2023-02-26T04:12:49;3.50;;;3.20;;
2416;SDS011;1219;48.736;9.330;2023-02-26T04:15:15;3.40;;;3.10;;
2416;SDS011;1219;48.736;9.330;2023-02-26T04:17:41;4.20;;;3.90;;
2416;SDS011;1219;48.736;9.330;2023-02-26T04:20:07;3.80;;;3.40;;
2416;SDS011;1219;48.736;9.330;2023-02-26T04:22:35;4.33;;;3.47;;
2416;SDS011;1219;48.736;9.330;2023-02-26T04:25:01;3.17;;;2.87;;
2416;SDS011;1219;48.736;9.330;2023-02-26T04:27:27;3.30;;;2.90;;
2416;SDS011;1219;48.736;9.330;2023-02-26T04:29:53;4.10;;;3.70;;
2416;SDS011;1219;48.736;9.330;2023-02-26T04:32:19;3.30;;;3.00;;
2416;SDS011;1219;48.736;9.330;2023-02-26T04:34:45;3.17;;;2.87;;
2416;SDS011;1219;48.736;9.330;2023-02-26T04:37:11;6.43;;;3.60;;
2416;SDS011;1219;48.736;9.330;2023-02-26T04:39:37;3.40;;;3.10;;
2416;SDS011;1219;48.736;9.330;2023-02-26T04:42:03;3.17;;;2.87;;
2416;SDS011;1219;48.736;9.330;2023-02-26T04:44:29;5.00;;;3.10;;
2416;SDS011;1219;48.736;9.330;2023-02-26T04:46:56;6.83;;;3.20;;
2416;SDS011;1219;48.736;9.330;2023-02-26T04:49:22;3.77;;;3.47;;
2416;SDS011;1219;48.736;9.330;2023-02-26T04:51:48;3.00;;;2.80;;
2416;SDS011;1219;48.736;9.330;2023-02-26T04:54:14;3.30;;;3.00;;
2416;SDS011;1219;48.736;9.330;2023-02-26T04:56:40;5.30;;;3.67;;
2416;SDS011;1219;48.736;9.330;2023-02-26T04:59:06;3.93;;;3.63;;
2416;SDS011;1219;48.736;9.330;2023-02-26T05:01:32;4.70;;;3.00;;
2416;SDS011;1219;48.736;9.330;2023-02-26T05:03:58;6.70;;;4.00;;
2416;SDS011;1219;48.736;9.330;2023-02-26T05:06:25;4.03;;;3.30;;
2416;SDS011;1219;48.736;9.330;2023-02-26T05:08:51;4.37;;;3.40;;
2416;SDS011;1219;48.736;9.330;2023-02-26T05:11:17;5.77;;;4.00;;
2416;SDS011;1219;48.736;9.330;2023-02-26T05:13:43;4.37;;;3.67;;
2416;SDS011;1219;48.736;9.330;2023-02-26T05:16:09;5.67;;;4.03;;
2416;SDS011;1219;48.736;9.330;2023-02-26T05:18:35;4.63;;;3.90;;
2416;SDS011;1219;48.736;9.330;2023-02-26T05:21:01;4.27;;;3.83;;
2416;SDS011;1219;48.736;9.330;2023-02-26T05:23:27;5.00;;;3.90;;
2416;SDS011;1219;48.736;9.330;2023-02-26T05:25:56;4.13;;;3.73;;
2416;SDS011;1219;48.736;9.330;2023-02-26T05:28:22;6.60;;;4.60;;
2416;SDS011;1219;48.736;9.330;2023-02-26T05:30:48;4.70;;;4.00;;
2416;SDS011;1219;48.736;9.330;2023-02-26T05:33:14;6.47;;;6.03;;
2416;SDS011;1219;48.736;9.330;2023-02-26T05:35:40;9.00;;;6.53;;
2416;SDS011;1219;48.736;9.330;2023-02-26T05:38:06;8.40;;;6.10;;
2416;SDS011;1219;48.736;9.330;2023-02-26T05:40:33;6.47;;;5.97;;
2416;SDS011;1219;48.736;9.330;2023-02-26T05:42:59;7.60;;;6.13;;
2416;SDS011;1219;48.736;9.330;2023-02-26T05:45:24;7.23;;;6.00;;
2416;SDS011;1219;48.736;9.330;2023-02-26T05:47:50;5.57;;;4.87;;
2416;SDS011;1219;48.736;9.330;2023-02-26T05:50:16;6.20;;;3.30;;
2416;SDS011;1219;48.736;9.330;2023-02-26T05:52:42;4.07;;;3.67;;
2416;SDS011;1219;48.736;9.330;2023-02-26T05:55:08;4.40;;;3.70;;
2416;SDS011;1219;48.736;9.330;2023-02-26T05:57:34;6.83;;;4.20;;
2416;SDS011;1219;48.736;9.330;2023-02-26T06:00:00;5.00;;;4.37;;
2416;SDS011;1219;48.736;9.330;2023-02-26T06:02:26;4.47;;;4.07;;
2416;SDS011;1219;48.736;9.330;2023-02-26T06:04:52;5.23;;;4.30;;
2416;SDS011;1219;48.736;9.330;2023-02-26T06:07:18;4.10;;;3.80;;
2416;SDS011;1219;48.736;9.330;2023-02-26T06:09:44;5.07;;;4.60;;
2416;SDS011;1219;48.736;9.330;2023-02-26T06:12:10;5.23;;;4.63;;
2416;SDS011;1219;48.736;9.330;2023-02-26T06:14:36;6.70;;;5.50;;
2416;SDS011;1219;48.736;9.330;2023-02-26T06:17:03;6.27;;;5.03;;
2416;SDS011;1219;48.736;9.330;2023-02-26T06:19:29;7.23;;;4.60;;
2416;SDS011;1219;48.736;9.330;2023-02-26T06:21:55;7.17;;;4.83;;
2416;SDS011;1219;48.736;9.330;2023-02-26T06:24:21;9.73;;;8.83;;
2416;SDS011;1219;48.736;9.330;2023-02-26T06:26:47;20.53;;;14.73;;
2416;SDS011;1219;48.736;9.330;2023-02-26T06:29:13;28.70;;;17.33;;
2416;SDS011;1219;48.736;9.330;2023-02-26T06:31:39;10.03;;;9.03;;
2416;SDS011;1219;48.736;9.330;2023-02-26T06:34:05;11.50;;;6.87;;
2416;SDS011;1219;48.736;9.330;2023-02-26T06:36:31;8.17;;;7.30;;
2416;SDS011;1219;48.736;9.330;2023-02-26T06:38:56;8.47;;;7.17;;
2416;SDS011;1219;48.736;9.330;2023-02-26T06:41:22;12.30;;;7.60;;
2416;SDS011;1219;48.736;9.330;2023-02-26T06:43:50;6.63;;;6.00;;
2416;SDS011;1219;48.736;9.330;2023-02-26T06:46:16;6.37;;;5.77;;
2416;SDS011;1219;48.736;9.330;2023-02-26T06:48:42;7.53;;;6.93;;
2416;SDS011;1219;48.736;9.330;2023-02-26T06:51:08;7.53;;;6.67;;
2416;SDS011;1219;48.736;9.330;2023-02-26T06:53:34;6.33;;;5.20;;
2416;SDS011;1219;48.736;9.330;2023-02-26T06:56:00;6.47;;;5.63;;
2416;SDS011;1219;48.736;9.330;2023-02-26T06:58:26;5.60;;;5.13;;
2416;SDS011;1219;48.736;9.330;2023-02-26T07:00:52;6.40;;;5.80;;
2416;SDS011;1219;48.736;9.330;2023-02-26T07:03:18;5.60;;;5.10;;
2416;SDS011;1219;48.736;9.330;2023-02-26T07:05:45;4.73;;;4.40;;
2416;SDS011;1219;48.736;9.330;2023-02-26T07:08:11;7.10;;;6.07;;
2416;SDS011;1219;48.736;9.330;2023-02-26T07:10:37;4.90;;;4.50;;
2416;SDS011;1219;48.736;9.330;2023-02-26T07:13:03;9.43;;;5.10;;
2416;SDS011;1219;48.736;9.330;2023-02-26T07:15:30;9.63;;;5.33;;
2416;SDS011;1219;48.736;9.330;2023-02-26T07:17:56;4.63;;;4.20;;
2416;SDS011;1219;48.736;9.330;2023-02-26T07:20:24;9.13;;;4.33;;
2416;SDS011;1219;48.736;9.330;2023-02-26T07:22:50;5.53;;;5.00;;
2416;SDS011;1219;48.736;9.330;2023-02-26T07:25:16;7.20;;;5.90;;
2416;SDS011;1219;48.736;9.330;2023-02-26T07:27:42;6.30;;;4.47;;
2416;SDS011;1219;48.736;9.330;2023-02-26T07:30:08;5.37;;;4.33;;
2416;SDS011;1219;48.736;9.330;2023-02-26T07:32:34;7.10;;;5.00;;
2416;SDS011;1219;48.736;9.330;2023-02-26T07:35:00;6.00;;;3.83;;
2416;SDS011;1219;48.736;9.330;2023-02-26T07:37:26;5.73;;;4.40;;
2416;SDS011;1219;48.736;9.330;2023-02-26T07:39:53;8.10;;;3.80;;
2416;SDS011;1219;48.736;9.330;2023-02-26T07:42:19;4.77;;;4.17;;
2416;SDS011;1219;48.736;9.330;2023-02-26T07:44:45;4.47;;;4.07;;
2416;SDS011;1219;48.736;9.330;2023-02-26T07:47:11;6.90;;;3.60;;
2416;SDS011;1219;48.736;9.330;2023-02-26T07:49:37;4.00;;;3.50;;
2416;SDS011;1219;48.736;9.330;2023-02-26T07:52:03;4.93;;;3.50;;
2416;SDS011;1219;48.736;9.330;2023-02-26T07:54:31;3.93;;;3.00;;
2416;SDS011;1219;48.736;9.330;2023-02-26T07:56:57;3.40;;;3.20;;
2416;SDS011;1219;48.736;9.330;2023-02-26T07:59:23;3.90;;;3.10;;
2416;SDS011;1219;48.736;9.330;2023-02-26T08:01:49;3.57;;;3.27;;
2416;SDS011;1219;48.736;9.330;2023-02-26T08:04:15;3.50;;;3.30;;
2416;SDS011;1219;48.736;9.330;2023-02-26T08:06:41;3.53;;;3.23;;
2416;SDS011;1219;48.736;9.330;2023-02-26T08:09:07;4.43;;;3.73;;
2416;SDS011;1219;48.736;9.330;2023-02-26T08:11:33;3.90;;;3.57;;
2416;SDS011;1219;48.736;9.330;2023-02-26T08:14:03;3.03;;;2.77;;
2416;SDS011;1219;48.736;9.330;2023-02-26T08:16:29;3.30;;;2.93;;
2416;SDS011;1219;48.736;9.330;2023-02-26T08:18:55;3.13;;;2.93;;
2416;SDS011;1219;48.736;9.330;2023-02-26T08:21:22;4.50;;;3.90;;
2416;SDS011;1219;48.736;9.330;2023-02-26T08:23:48;3.70;;;3.40;;
2416;SDS011;1219;48.736;9.330;2023-02-26T08:26:14;5.17;;;3.40;;
2416;SDS011;1219;48.736;9.330;2023-02-26T08:28:40;4.57;;;4.00;;
2416;SDS011;1219;48.736;9.330;2023-02-26T08:31:05;3.13;;;2.83;;
2416;SDS011;1219;48.736;9.330;2023-02-26T08:33:32;3.30;;;3.00;;
2416;SDS011;1219;48.736;9.330;2023-02-26T08:35:58;8.60;;;4.17;;
2416;SDS011;1219;48.736;9.330;2023-02-26T08:38:26;3.77;;;3.47;;
2416;SDS011;1219;48.736;9.330;2023-02-26T08:40:52;3.37;;;3.17;;
2416;SDS011;1219;48.736;9.330;2023-02-26T08:43:18;4.13;;;3.40;;
2416;SDS011;1219;48.736;9.330;2023-02-26T08:45:45;2.73;;;2.53;;
2416;SDS011;1219;48.736;9.330;2023-02-26T08:48:11;5.20;;;2.93;;
2416;SDS011;1219;48.736;9.330;2023-02-26T08:50:37;3.17;;;2.90;;
2416;SDS011;1219;48.736;9.330;2023-02-26T08:53:04;3.13;;;2.83;;
2416;SDS011;1219;48.736;9.330;2023-02-26T08:55:30;6.30;;;3.70;;
2416;SDS011;1219;48.736;9.330;2023-02-26T08:57:56;5.43;;;2.60;;
2416;SDS011;1219;48.736;9.330;2023-02-26T09:00:22;4.40;;;3.17;;
2416;SDS011;1219;48.736;9.330;2023-02-26T09:02:48;3.17;;;2.97;;
2416;SDS011;1219;48.736;9.330;2023-02-26T09:05:14;2.97;;;2.67;;
2416;SDS011;1219;48.736;9.330;2023-02-26T09:07:41;3.40;;;3.10;;
2416;SDS011;1219;48.736;9.330;2023-02-26T09:10:07;2.90;;;2.60;;
2416;SDS011;1219;48.736;9.330;2023-02-26T09:12:34;3.20;;;2.90;;
2416;SDS011;1219;48.736;9.330;2023-02-26T09:15:03;3.00;;;2.70;;
2416;SDS011;1219;48.736;9.330;2023-02-26T09:17:29;3.40;;;2.63;;
2416;SDS011;1219;48.736;9.330;2023-02-26T09:19:55;2.90;;;2.30;;
2416;SDS011;1219;48.736;9.330;2023-02-26T09:22:21;3.03;;;2.73;;
2416;SDS011;1219;48.736;9.330;2023-02-26T09:24:47;8.00;;;2.90;;
2416;SDS011;1219;48.736;9.330;2023-02-26T09:27:13;3.93;;;2.23;;
2416;SDS011;1219;48.736;9.330;2023-02-26T09:29:39;3.10;;;2.40;;
2416;SDS011;1219;48.736;9.330;2023-02-26T09:32:05;4.00;;;2.73;;
2416;SDS011;1219;48.736;9.330;2023-02-26T09:34:32;3.33;;;3.10;;
2416;SDS011;1219;48.736;9.330;2023-02-26T09:36:58;4.80;;;3.20;;
2416;SDS011;1219;48.736;9.330;2023-02-26T09:39:24;5.87;;;2.50;;
2416;SDS011;1219;48.736;9.330;2023-02-26T09:41:51;2.60;;;2.40;;
2416;SDS011;1219;48.736;9.330;2023-02-26T09:51:57;4.40;;;4.00;;
2416;SDS011;1219;48.736;9.330;2023-02-26T09:54:27;8.77;;;5.07;;
2416;SDS011;1219;48.736;9.330;2023-02-26T09:56:55;4.10;;;3.70;;
2416;SDS011;1219;48.736;9.330;2023-02-26T09:59:22;6.10;;;4.17;;
2416;SDS011;1219;48.736;9.330;2023-02-26T10:01:55;10.17;;;5.00;;
2416;SDS011;1219;48.736;9.330;2023-02-26T10:04:25;3.57;;;2.60;;
2416;SDS011;1219;48.736;9.330;2023-02-26T10:07:06;3.10;;;2.60;;
2416;SDS011;1219;48.736;9.330;2023-02-26T10:12:02;4.30;;;2.30;;
2416;SDS011;1219;48.736;9.330;2023-02-26T10:14:32;5.73;;;3.43;;
2416;SDS011;1219;48.736;9.330;2023-02-26T10:17:01;2.60;;;2.40;;
2416;SDS011;1219;48.736;9.330;2023-02-26T10:19:29;2.50;;;2.40;;
2416;SDS011;1219;48.736;9.330;2023-02-26T10:22:00;5.80;;;4.87;;
2416;SDS011;1219;48.736;9.330;2023-02-26T10:24:39;2.90;;;2.70;;
2416;SDS011;1219;48.736;9.330;2023-02-26T10:27:14;4.60;;;3.80;;
2416;SDS011;1219;48.736;9.330;2023-02-26T10:32:35;12.80;;;3.97;;
2416;SDS011;1219;48.736;9.330;2023-02-26T10:35:03;5.00;;;3.27;;
2416;SDS011;1219;48.736;9.330;2023-02-26T10:42:51;3.57;;;3.30;;
2416;SDS011;1219;48.736;9.330;2023-02-26T10:50:49;4.43;;;3.27;;
2416;SDS011;1219;48.736;9.330;2023-02-26T10:53:16;4.73;;;3.43;;
2416;SDS011;1219;48.736;9.330;2023-02-26T10:55:43;4.30;;;2.70;;
2416;SDS011;1219;48.736;9.330;2023-02-26T10:58:22;2.20;;;2.10;;
2416;SDS011;1219;48.736;9.330;2023-02-26T11:00:50;5.77;;;2.60;;
2416;SDS011;1219;48.736;9.330;2023-02-26T11:03:39;3.47;;;2.43;;
2416;SDS011;1219;48.736;9.330;2023-02-26T11:06:04;2.27;;;2.07;;
2416;SDS011;1219;48.736;9.330;2023-02-26T11:08:36;2.60;;;2.40;;
2416;SDS011;1219;48.736;9.330;2023-02-26T11:11:04;3.47;;;2.77;;
2416;SDS011;1219;48.736;9.330;2023-02-26T11:13:32;2.50;;;2.30;;
2416;SDS011;1219;48.736;9.330;2023-02-26T11:16:01;3.47;;;3.17;;
2416;SDS011;1219;48.736;9.330;2023-02-26T11:18:38;4.20;;;3.50;;
2416;SDS011;1219;48.736;9.330;2023-02-26T11:21:05;2.70;;;2.33;;
2416;SDS011;1219;48.736;9.330;2023-02-26T11:23:31;2.50;;;2.30;;
2416;SDS011;1219;48.736;9.330;2023-02-26T11:25:59;2.00;;;1.90;;
2416;SDS011;1219;48.736;9.330;2023-02-26T11:28:37;3.37;;;2.50;;
2416;SDS011;1219;48.736;9.330;2023-02-26T11:31:08;2.10;;;2.00;;
2416;SDS011;1219;48.736;9.330;2023-02-26T11:33:39;5.07;;;2.93;;
2416;SDS011;1219;48.736;9.330;2023-02-26T11:36:15;3.27;;;2.60;;
2416;SDS011;1219;48.736;9.330;2023-02-26T11:38:45;2.70;;;2.50;;
2416;SDS011;1219;48.736;9.330;2023-02-26T11:41:12;2.97;;;2.77;;
2416;SDS011;1219;48.736;9.330;2023-02-26T11:43:39;3.27;;;2.97;;
2416;SDS011;1219;48.736;9.330;2023-02-26T11:46:07;2.53;;;2.33;;
2416;SDS011;1219;48.736;9.330;2023-02-26T11:51:02;3.30;;;2.90;;
2416;SDS011;1219;48.736;9.330;2023-02-26T11:53:30;3.30;;;2.60;;
2416;SDS011;1219;48.736;9.330;2023-02-26T11:56:01;2.87;;;2.63;;
2416;SDS011;1219;48.736;9.330;2023-02-26T11:58:28;2.57;;;2.37;;
2416;SDS011;1219;48.736;9.330;2023-02-26T12:00:57;3.30;;;3.00;;
2416;SDS011;1219;48.736;9.330;2023-02-26T12:03:25;2.90;;;2.70;;
2416;SDS011;1219;48.736;9.330;2023-02-26T12:05:56;2.23;;;2.10;;
2416;SDS011;1219;48.736;9.330;2023-02-26T12:08:32;3.30;;;2.20;;
2416;SDS011;1219;48.736;9.330;2023-02-26T12:16:27;3.33;;;3.13;;
2416;SDS011;1219;48.736;9.330;2023-02-26T12:18:58;2.30;;;2.20;;
2416;SDS011;1219;48.736;9.330;2023-02-26T12:21:42;2.53;;;2.30;;
2416;SDS011;1219;48.736;9.330;2023-02-26T12:34:51;2.60;;;2.50;;
2416;SDS011;1219;48.736;9.330;2023-02-26T12:40:15;5.97;;;4.40;;
2416;SDS011;1219;48.736;9.330;2023-02-26T12:48:00;5.33;;;2.40;;
2416;SDS011;1219;48.736;9.330;2023-02-26T12:50:35;4.13;;;3.47;;
2416;SDS011;1219;48.736;9.330;2023-02-26T12:55:38;2.27;;;2.17;;
2416;SDS011;1219;48.736;9.330;2023-02-26T13:01:07;2.30;;;2.20;;
2416;SDS011;1219;48.736;9.330;2023-02-26T13:03:40;1.90;;;1.80;;
2416;SDS011;1219;48.736;9.330;2023-02-26T13:08:51;2.63;;;2.43;;
2416;SDS011;1219;48.736;9.330;2023-02-26T13:16:46;2.87;;;2.67;;
2416;SDS011;1219;48.736;9.330;2023-02-26T13:19:48;3.40;;;3.20;;
2416;SDS011;1219;48.736;9.330;2023-02-26T13:22:17;2.70;;;2.50;;
2416;SDS011;1219;48.736;9.330;2023-02-26T13:27:10;2.53;;;1.97;;
2416;SDS011;1219;48.736;9.330;2023-02-26T13:29:46;1.70;;;1.60;;
2416;SDS011;1219;48.736;9.330;2023-02-26T13:32:15;2.00;;;1.90;;
2416;SDS011;1219;48.736;9.330;2023-02-26T13:34:54;2.03;;;1.93;;
2416;SDS011;1219;48.736;9.330;2023-02-26T13:37:30;2.23;;;2.13;;
2416;SDS011;1219;48.736;9.330;2023-02-26T13:42:50;2.10;;;1.90;;
2416;SDS011;1219;48.736;9.330;2023-02-26T13:50:26;1.87;;;1.77;;
2416;SDS011;1219;48.736;9.330;2023-02-26T13:52:55;2.50;;;1.93;;
2416;SDS011;1219;48.736;9.330;2023-02-26T13:55:35;1.80;;;1.70;;
2416;SDS011;1219;48.736;9.330;2023-02-26T14:03:34;1.57;;;1.47;;
2416;SDS011;1219;48.736;9.330;2023-02-26T14:06:21;1.50;;;1.40;;
2416;SDS011;1219;48.736;9.330;2023-02-26T14:08:48;1.70;;;1.60;;
2416;SDS011;1219;48.736;9.330;2023-02-26T14:11:24;1.63;;;1.53;;
2416;SDS011;1219;48.736;9.330;2023-02-26T14:14:05;2.20;;;2.00;;
2416;SDS011;1219;48.736;9.330;2023-02-26T14:16:33;3.47;;;1.90;;
2416;SDS011;1219;48.736;9.330;2023-02-26T14:19:03;4.50;;;2.67;;
2416;SDS011;1219;48.736;9.330;2023-02-26T14:26:35;1.90;;;1.80;;
2416;SDS011;1219;48.736;9.330;2023-02-26T14:34:15;5.73;;;1.77;;
2416;SDS011;1219;48.736;9.330;2023-02-26T14:36:56;2.50;;;1.60;;
2416;SDS011;1219;48.736;9.330;2023-02-26T14:39:24;1.40;;;1.30;;
2416;SDS011;1219;48.736;9.330;2023-02-26T14:41:53;1.63;;;1.53;;
2416;SDS011;1219;48.736;9.330;2023-02-26T14:44:25;1.30;;;1.20;;
2416;SDS011;1219;48.736;9.330;2023-02-26T14:46:51;1.40;;;1.30;;
2416;SDS011;1219;48.736;9.330;2023-02-26T14:49:24;2.77;;;1.40;;
2416;SDS011;1219;48.736;9.330;2023-02-26T14:51:59;1.50;;;1.40;;
2416;SDS011;1219;48.736;9.330;2023-02-26T14:54:51;1.53;;;1.43;;
2416;SDS011;1219;48.736;9.330;2023-02-26T14:59:58;1.70;;;1.60;;
2416;SDS011;1219;48.736;9.330;2023-02-26T15:07:46;1.40;;;1.30;;
2416;SDS011;1219;48.736;9.330;2023-02-26T15:13:05;1.40;;;1.30;;
2416;SDS011;1219;48.736;9.330;2023-02-26T15:21:40;2.90;;;1.70;;
2416;SDS011;1219;48.736;9.330;2023-02-26T15:23:52;2.20;;;2.10;;
2416;SDS011;1219;48.736;9.330;2023-02-26T15:26:23;2.03;;;1.93;;
2416;SDS011;1219;48.736;9.330;2023-02-26T15:28:50;2.73;;;2.53;;
2416;SDS011;1219;48.736;9.330;2023-02-26T15:31:18;2.97;;;2.77;;
2416;SDS011;1219;48.736;9.330;2023-02-26T15:33:46;2.50;;;2.30;;
2416;SDS011;1219;48.736;9.330;2023-02-26T15:36:13;1.80;;;1.70;;
2416;SDS011;1219;48.736;9.330;2023-02-26T15:38:43;2.20;;;2.00;;
2416;SDS011;1219;48.736;9.330;2023-02-26T15:41:10;3.37;;;2.13;;
2416;SDS011;1219;48.736;9.330;2023-02-26T15:43:36;3.20;;;2.50;;
2416;SDS011;1219;48.736;9.330;2023-02-26T15:46:02;4.73;;;2.27;;
2416;SDS011;1219;48.736;9.330;2023-02-26T15:48:32;3.23;;;2.20;;
2416;SDS011;1219;48.736;9.330;2023-02-26T15:50:59;1.90;;;1.80;;
2416;SDS011;1219;48.736;9.330;2023-02-26T15:53:27;2.33;;;2.13;;
2416;SDS011;1219;48.736;9.330;2023-02-26T15:55:55;2.00;;;1.90;;
2416;SDS011;1219;48.736;9.330;2023-02-26T15:58:40;3.87;;;2.00;;
2416;SDS011;1219;48.736;9.330;2023-02-26T16:01:12;2.50;;;2.30;;
2416;SDS011;1219;48.736;9.330;2023-02-26T16:03:38;2.90;;;2.70;;
2416;SDS011;1219;48.736;9.330;2023-02-26T16:06:05;2.60;;;2.40;;
2416;SDS011;1219;48.736;9.330;2023-02-26T16:08:32;1.90;;;1.80;;
2416;SDS011;1219;48.736;9.330;2023-02-26T16:10:58;1.80;;;1.70;;
2416;SDS011;1219;48.736;9.330;2023-02-26T16:13:29;1.80;;;1.70;;
2416;SDS011;1219;48.736;9.330;2023-02-26T16:15:57;1.80;;;1.70;;
2416;SDS011;1219;48.736;9.330;2023-02-26T16:18:24;2.07;;;1.87;;
2416;SDS011;1219;48.736;9.330;2023-02-26T16:20:52;2.00;;;1.90;;
2416;SDS011;1219;48.736;9.330;2023-02-26T16:23:22;2.00;;;1.90;;
2416;SDS011;1219;48.736;9.330;2023-02-26T16:25:50;1.93;;;1.80;;
2416;SDS011;1219;48.736;9.330;2023-02-26T16:28:18;1.90;;;1.80;;
2416;SDS011;1219;48.736;9.330;2023-02-26T16:30:46;1.70;;;1.60;;
2416;SDS011;1219;48.736;9.330;2023-02-26T16:33:13;1.73;;;1.63;;
2416;SDS011;1219;48.736;9.330;2023-02-26T16:36:22;2.13;;;1.97;;
2416;SDS011;1219;48.736;9.330;2023-02-26T16:38:41;3.13;;;2.23;;
2416;SDS011;1219;48.736;9.330;2023-02-26T16:41:08;2.07;;;1.83;;
2416;SDS011;1219;48.736;9.330;2023-02-26T16:46:07;3.57;;;2.00;;
2416;SDS011;1219;48.736;9.330;2023-02-26T16:48:36;1.90;;;1.80;;
2416;SDS011;1219;48.736;9.330;2023-02-26T16:51:08;2.77;;;2.57;;
2416;SDS011;1219;48.736;9.330;2023-02-26T16:53:39;2.57;;;2.37;;
2416;SDS011;1219;48.736;9.330;2023-02-26T16:56:08;2.30;;;2.10;;
2416;SDS011;1219;48.736;9.330;2023-02-26T16:58:40;5.57;;;4.03;;
2416;SDS011;1219;48.736;9.330;2023-02-26T17:01:07;2.20;;;2.10;;
2416;SDS011;1219;48.736;9.330;2023-02-26T17:03:37;2.73;;;2.10;;
2416;SDS011;1219;48.736;9.330;2023-02-26T17:06:06;2.20;;;2.10;;
2416;SDS011;1219;48.736;9.330;2023-02-26T17:08:35;3.20;;;2.63;;
2416;SDS011;1219;48.736;9.330;2023-02-26T17:11:07;3.70;;;2.20;;
2416;SDS011;1219;48.736;9.330;2023-02-26T17:13:34;4.17;;;2.20;;
2416;SDS011;1219;48.736;9.330;2023-02-26T17:16:07;2.80;;;2.20;;
2416;SDS011;1219;48.736;9.330;2023-02-26T17:18:33;2.47;;;2.27;;
2416;SDS011;1219;48.736;9.330;2023-02-26T17:20:59;3.20;;;1.80;;
2416;SDS011;1219;48.736;9.330;2023-02-26T17:23:30;2.30;;;2.10;;
2416;SDS011;1219;48.736;9.330;2023-02-26T17:25:57;2.67;;;2.47;;
2416;SDS011;1219;48.736;9.330;2023-02-26T17:28:26;3.00;;;1.90;;
2416;SDS011;1219;48.736;9.330;2023-02-26T17:30:53;1.60;;;1.50;;
2416;SDS011;1219;48.736;9.330;2023-02-26T17:33:19;1.80;;;1.70;;
2416;SDS011;1219;48.736;9.330;2023-02-26T17:35:45;1.77;;;1.63;;
2416;SDS011;1219;48.736;9.330;2023-02-26T17:38:12;1.70;;;1.60;;
2416;SDS011;1219;48.736;9.330;2023-02-26T17:40:38;2.60;;;2.40;;
2416;SDS011;1219;48.736;9.330;2023-02-26T17:43:05;1.87;;;1.77;;
2416;SDS011;1219;48.736;9.330;2023-02-26T17:45:33;2.43;;;2.00;;
2416;SDS011;1219;48.736;9.330;2023-02-26T17:47:59;2.27;;;2.07;;
2416;SDS011;1219;48.736;9.330;2023-02-26T17:52:53;1.93;;;1.83;;
2416;SDS011;1219;48.736;9.330;2023-02-26T17:55:20;2.73;;;2.40;;
2416;SDS011;1219;48.736;9.330;2023-02-26T17:57:46;1.73;;;1.63;;
2416;SDS011;1219;48.736;9.330;2023-02-26T18:00:13;2.70;;;1.87;;
2416;SDS011;1219;48.736;9.330;2023-02-26T18:02:39;3.77;;;2.20;;
2416;SDS011;1219;48.736;9.330;2023-02-26T18:05:05;2.87;;;2.10;;